Anne Sibum — C4YC2 — position and weather

sailwx.info

Track history (hours):
 
Tides and Currents Weather Stations Pressure Air Temp Water Temp Dewpoint Dewpoint Depression Visibility Wind Speed Wind Dir Waves Ship Positions

Anne Sibum

Last reported at 2018-Apr-26 22:30 UTC. Time now 2018-Apr-26 22:48 UTC.
Position N 50°18' W 000°06'.

Length 152 m; draft 6.8 m.

Type: Ship (hazmat cat A). MMSI: 209322000.

Date/timePositionNaut miles runAvg speedWind from/ knotsBaromVisibWave heightAir tempDewpointWater temp
2018-Apr-26 22:30N 50°18' W 000°06'3 6.8
2018-Apr-26 22:00N 50°17' W 000°12'4 7.1
2018-Apr-26 21:30N 50°16' W 000°17'4 7.4
2018-Apr-26 21:00N 50°16' W 000°23'4 8.1
2018-Apr-26 20:30N 50°15' W 000°29'4 8.8
2018-Apr-26 20:00N 50°14' W 000°36'5 9.5
2018-Apr-26 19:30N 50°13' W 000°43'510.4
2018-Apr-26 18:59N 50°11' W 000°51'511.0
2018-Apr-26 18:30N 50°10' W 000°59'611.5
2018-Apr-26 17:57N 50°08' W 001°08'1411.7
2018-Apr-26 16:45N 50°04' W 001°29'  
2018-Apr-24 00:38N 39°22' W 009°51'213.7
2018-Apr-24 00:30N 39°21' W 009°51'713.7
2018-Apr-24 00:00N 39°14' W 009°51'713.6
2018-Apr-23 23:30N 39°07' W 009°51'713.6
2018-Apr-23 23:01N 39°00' W 009°51'713.7
2018-Apr-23 22:31N 38°53' W 009°51'713.5
2018-Apr-23 22:01N 38°47' W 009°51'713.4
2018-Apr-23 21:30N 38°40' W 009°49'713.3
2018-Apr-23 21:00N 38°36' W 009°43'714.9
2018-Apr-23 20:30N 38°36' W 009°33'714.8
2018-Apr-23 20:00N 38°37' W 009°24'714.7
2018-Apr-23 19:30N 38°41' W 009°16'510.7
2018-Apr-23 19:00N 38°42' W 009°09'3 5.6
2018-Apr-23 18:29N 38°44' W 009°06'0 0.0
2018-Apr-23 17:59N 38°44' W 009°06'0 0.0
2018-Apr-23 17:23N 38°44' W 009°06'0 0.0
2018-Apr-23 16:59N 38°44' W 009°06'0 0.0
2018-Apr-23 16:29N 38°44' W 009°06'0 0.0
2018-Apr-23 15:56N 38°44' W 009°06'0 0.0
2018-Apr-23 15:23N 38°44' W 009°06'0 0.0
2018-Apr-23 14:59N 38°44' W 009°06'0 0.0
2018-Apr-23 14:20N 38°44' W 009°06'0 0.0
2018-Apr-23 13:59N 38°44' W 009°06'0 0.0
2018-Apr-23 13:29N 38°44' W 009°06'0 0.0
2018-Apr-23 12:56N 38°44' W 009°06'0 0.0
2018-Apr-23 12:29N 38°44' W 009°06'0 0.0
2018-Apr-23 11:59N 38°44' W 009°06'0 0.0
2018-Apr-23 11:29N 38°44' W 009°06'0 0.0
2018-Apr-23 10:59N 38°44' W 009°06'0 0.0
2018-Apr-23 10:29N 38°44' W 009°06'0 0.0
2018-Apr-23 09:59N 38°44' W 009°06'0 0.0
2018-Apr-23 09:26N 38°44' W 009°06'0 0.0
2018-Apr-23 09:00N 38°44' W 009°06'0 0.0
2018-Apr-23 08:30N 38°44' W 009°06'0 0.0
2018-Apr-23 08:00N 38°44' W 009°06'0 0.0
2018-Apr-23 07:30N 38°44' W 009°06'0 0.0
2018-Apr-23 07:00N 38°44' W 009°06'1 2.4
2018-Apr-23 06:31N 38°42' W 009°07'510.2
2018-Apr-23 06:00N 38°41' W 009°13'510.7
2018-Apr-23 05:30N 38°39' W 009°20'611.7
2018-Apr-23 05:00N 38°36' W 009°26'5 9.9
2018-Apr-23 04:30N 38°36' W 009°33'715.0
2018-Apr-23 04:00N 38°35' W 009°42'714.1
2018-Apr-23 03:30N 38°35' W 009°51'713.8
2018-Apr-23 03:00N 38°35' W 009°60'612.4
2018-Apr-23 02:30N 38°40' W 010°06'1715.2
2018-Apr-23 01:21N 38°57' W 010°03'515.6
2018-Apr-23 01:00N 39°02' W 010°00'815.6
2018-Apr-23 00:30N 39°09' W 009°56'815.6
2018-Apr-23 00:00N 39°16' W 009°52'815.4
2018-Apr-22 23:30N 39°23' W 009°48'11015.6
2018-Apr-22 16:24N 41°03' W 008°47'615.3
2018-Apr-22 16:00N 41°09' W 008°43'3 4.3
2018-Apr-22 15:25N 41°11' W 008°42'0 0.0
2018-Apr-22 14:55N 41°11' W 008°42'0 0.0
2018-Apr-22 14:25N 41°11' W 008°42'0 0.0
2018-Apr-22 13:55N 41°11' W 008°42'0 0.0
2018-Apr-22 13:25N 41°11' W 008°42'0 0.0
2018-Apr-22 12:55N 41°11' W 008°42'0 0.0
2018-Apr-22 12:25N 41°11' W 008°42'0 0.0
2018-Apr-22 11:55N 41°11' W 008°42'0 0.0
2018-Apr-22 11:25N 41°11' W 008°42'0 0.0
2018-Apr-22 10:55N 41°11' W 008°42'0 0.0
2018-Apr-22 10:25N 41°11' W 008°42'0 0.0
2018-Apr-22 09:55N 41°11' W 008°42'0 0.0
2018-Apr-22 09:25N 41°11' W 008°42'0 0.0
2018-Apr-22 08:55N 41°11' W 008°42'0 0.0
2018-Apr-22 08:25N 41°11' W 008°42'0 0.0
2018-Apr-22 07:55N 41°11' W 008°42'0 0.0
2018-Apr-22 07:25N 41°11' W 008°42'0 0.0
2018-Apr-22 06:55N 41°11' W 008°42'0 0.0
2018-Apr-22 06:25N 41°11' W 008°42'0 0.0
2018-Apr-22 05:55N 41°11' W 008°42'0 0.0
2018-Apr-22 05:25N 41°11' W 008°42'0 0.0
2018-Apr-22 04:55N 41°11' W 008°42'0 0.0
2018-Apr-22 04:25N 41°11' W 008°42'0 0.0
2018-Apr-22 03:55N 41°11' W 008°42'0 0.0
2018-Apr-22 03:25N 41°11' W 008°42'0 0.0
2018-Apr-22 02:55N 41°11' W 008°42'0 0.0
2018-Apr-22 02:25N 41°11' W 008°42'0 0.0
2018-Apr-22 01:55N 41°11' W 008°42'0 0.0
2018-Apr-22 01:25N 41°11' W 008°42'0 0.0
2018-Apr-22 00:55N 41°11' W 008°42'0 0.0
2018-Apr-22 00:25N 41°11' W 008°42'0 0.0
2018-Apr-21 23:55N 41°11' W 008°42'0 0.0
2018-Apr-21 23:25N 41°11' W 008°42'0 0.0
2018-Apr-21 22:55N 41°11' W 008°42'0 0.0
2018-Apr-21 22:25N 41°11' W 008°42'0 0.0
2018-Apr-21 21:55N 41°11' W 008°42'0 0.0
2018-Apr-21 21:25N 41°11' W 008°42'0 0.0
2018-Apr-21 20:55N 41°11' W 008°42'0 0.0
2018-Apr-21 20:25N 41°11' W 008°42'0 0.0
2018-Apr-21 19:55N 41°11' W 008°42'0 0.0
2018-Apr-21 19:25N 41°11' W 008°42'0 0.0
2018-Apr-21 18:55N 41°11' W 008°42'0 0.0
2018-Apr-21 18:25N 41°11' W 008°42'0 0.0
2018-Apr-21 17:55N 41°11' W 008°42'0 0.0
2018-Apr-21 17:25N 41°11' W 008°42'0 0.0
2018-Apr-21 16:55N 41°11' W 008°42'0 0.0
2018-Apr-21 16:25N 41°11' W 008°42'0 0.0
2018-Apr-21 15:55N 41°11' W 008°42'0 0.0
2018-Apr-21 15:25N 41°11' W 008°42'0 0.0
2018-Apr-21 14:55N 41°11' W 008°42'0 0.0
2018-Apr-21 14:25N 41°11' W 008°42'0 0.0
2018-Apr-21 13:55N 41°11' W 008°42'0 0.0
2018-Apr-21 13:31N 41°11' W 008°42'1 2.4
2018-Apr-21 13:01N 41°10' W 008°43'1 2.5
2018-Apr-21 12:30N 41°10' W 008°44'2 3.9
2018-Apr-21 12:00N 41°10' W 008°47'0 0.1
2018-Apr-21 10:39N 41°10' W 008°47'0 0.0
2018-Apr-21 10:30N 41°10' W 008°47'0 0.0
2018-Apr-21 09:57N 41°10' W 008°47'0 0.0
2018-Apr-21 09:15N 41°10' W 008°47'0 0.0
2018-Apr-21 08:48N 41°10' W 008°47'0 0.0
2018-Apr-21 08:00N 41°10' W 008°47'0 0.0
2018-Apr-21 07:27N 41°10' W 008°47'0 0.0
2018-Apr-21 05:48N 41°10' W 008°47'0 0.0
2018-Apr-21 05:27N 41°10' W 008°47'0 0.0
2018-Apr-21 04:39N 41°10' W 008°47'0 0.0
2018-Apr-21 04:30N 41°10' W 008°47'0 0.0
2018-Apr-21 03:57N 41°10' W 008°47'0 0.1
2018-Apr-21 03:09N 41°10' W 008°47'0 0.2
2018-Apr-21 03:00N 41°10' W 008°47'3 6.2
2018-Apr-21 02:28N 41°09' W 008°50'510.1
2018-Apr-21 02:00N 41°13' W 008°53'40411.5
2018-Apr-19 14:58N 47°46' W 006°43'711.2
2018-Apr-19 14:19N 47°52' W 006°38'511.4
2018-Apr-19 13:52N 47°57' W 006°34'10112.1
2018-Apr-19 05:33N 49°13' W 004°56'512.3
2018-Apr-19 05:09N 49°16' W 004°49'212.4
2018-Apr-19 05:00N 49°16' W 004°47'612.6
2018-Apr-19 04:30N 49°20' W 004°38'713.1
2018-Apr-19 04:00N 49°24' W 004°30'713.8
2018-Apr-19 03:30N 49°27' W 004°21'1114.6
2018-Apr-19 02:45N 49°33' W 004°06'415.4
2018-Apr-19 02:28N 49°35' W 004°00'715.8
2018-Apr-19 02:00N 49°39' W 003°51'1016.0
2018-Apr-19 01:23N 49°44' W 003°38'616.0
2018-Apr-19 01:00N 49°48' W 003°30'816.0
2018-Apr-19 00:30N 49°52' W 003°20'815.5
2018-Apr-19 00:00N 49°56' W 003°10'714.8
2018-Apr-18 23:30N 49°59' W 002°60'1313.6
2018-Apr-18 22:35N 50°03' W 002°41'213.0
2018-Apr-18 22:24N 50°04' W 002°37'612.6
2018-Apr-18 21:55N 50°05' W 002°28'711.9
2018-Apr-18 21:19N 50°07' W 002°17'911.4
2018-Apr-18 20:30N 50°09' W 002°03'811.3
2018-Apr-18 19:45N 50°12' W 001°51'310.9
2018-Apr-18 19:30N 50°12' W 001°47'611.5
2018-Apr-18 19:00N 50°14' W 001°38'510.9
2018-Apr-18 18:30N 50°16' W 001°30'611.0
2018-Apr-18 18:00N 50°17' W 001°21'612.0
2018-Apr-18 17:29N 50°19' W 001°12'612.1
2018-Apr-18 17:01N 50°20' W 001°03'612.6
2018-Apr-18 16:30N 50°22' W 000°54'612.6
2018-Apr-18 16:01N 50°24' W 000°44'612.5
2018-Apr-18 15:30N 50°26' W 000°35'612.6
2018-Apr-18 15:00N 50°28' W 000°26'612.7
2018-Apr-18 14:31N 50°29' W 000°16'612.9
2018-Apr-18 14:00N 50°31' W 000°06'714.1
2018-Apr-18 13:30N 50°33' E 000°04'713.6
2018-Apr-18 13:00N 50°35' E 000°14'713.1
2018-Apr-18 12:30N 50°37' E 000°24'612.6
2018-Apr-18 12:00N 50°39' E 000°34'612.4
2018-Apr-18 11:30N 50°43' E 000°42'612.3
2018-Apr-18 11:00N 50°46' E 000°50'611.7
2018-Apr-18 10:30N 50°49' E 000°58'611.3
2018-Apr-18 10:00N 50°53' E 001°05'510.9
2018-Apr-18 09:30N 50°56' E 001°12'611.6
2018-Apr-18 08:59N 51°00' E 001°19'612.3
2018-Apr-18 08:30N 51°04' E 001°26'612.0
2018-Apr-18 08:00N 51°08' E 001°34'612.9
2018-Apr-18 07:31N 51°11' E 001°42'611.6
2018-Apr-18 07:00N 51°16' E 001°48'612.5
2018-Apr-18 06:31N 51°21' E 001°53'612.3
2018-Apr-18 06:01N 51°26' E 001°58'611.8
2018-Apr-18 05:31N 51°31' E 002°05'612.5
2018-Apr-18 05:00N 51°35' E 002°11'612.3
2018-Apr-18 04:31N 51°40' E 002°18'612.3
2018-Apr-18 04:00N 51°44' E 002°25'611.9
2018-Apr-18 03:30N 51°49' E 002°32'3711.2
2018-Apr-18 00:12N 52°03' E 003°27'311.9
2018-Apr-17 23:59N 52°03' E 003°31'611.8
2018-Apr-17 23:30N 52°03' E 003°41'612.3
2018-Apr-17 23:01N 52°02' E 003°50'612.8
2018-Apr-17 22:30N 52°00' E 004°00'2 4.5
2018-Apr-17 22:01N 51°58' E 004°02'2 3.6
2018-Apr-17 21:31N 51°57' E 003°59'0 0.0
2018-Apr-17 20:58N 51°57' E 003°59'0 0.0
2018-Apr-17 20:28N 51°57' E 003°59'0 0.0
2018-Apr-17 19:52N 51°57' E 003°59'0 0.0
2018-Apr-17 19:30N 51°57' E 003°59'0 0.1
2018-Apr-17 19:00N 51°57' E 003°60'0 0.1
2018-Apr-17 18:30N 51°57' E 003°59'0 0.1
2018-Apr-17 18:01N 51°57' E 003°60'0 0.0
2018-Apr-17 17:30N 51°57' E 003°60'0 0.1
2018-Apr-17 17:00N 51°57' E 003°59'0 0.0
2018-Apr-17 16:03N 51°57' E 003°60'0 0.0
2018-Apr-17 15:57N 51°57' E 003°60'0 0.0
2018-Apr-17 15:30N 51°57' E 003°60'0 0.0
2018-Apr-17 14:58N 51°57' E 003°60'0 0.0
2018-Apr-17 14:26N 51°57' E 003°60'0 0.0
2018-Apr-17 13:55N 51°57' E 003°60'0 0.0
2018-Apr-17 13:28N 51°57' E 003°60'0 0.0
2018-Apr-17 13:00N 51°57' E 003°60'1 1.2
2018-Apr-17 12:30N 51°58' E 003°60'3 6.7
2018-Apr-17 12:00N 51°58' E 004°05'3 7.0
2018-Apr-17 11:30N 51°57' E 004°10'0 0.4
2018-Apr-17 10:57N 51°56' E 004°11'0 0.0
2018-Apr-17 10:30N 51°56' E 004°11'0 0.0
2018-Apr-17 10:00N 51°56' E 004°11'0 0.0
2018-Apr-17 09:30N 51°56' E 004°11'0 0.0
2018-Apr-17 09:00N 51°56' E 004°11'1 1.3
2018-Apr-17 08:30N 51°57' E 004°10'4 7.1
2018-Apr-17 08:00N 51°57' E 004°04'1 2.0
2018-Apr-17 07:28N 51°57' E 004°02'0 0.0
2018-Apr-17 06:58N 51°57' E 004°02'0 0.0
2018-Apr-17 06:28N 51°57' E 004°02'0 0.0
2018-Apr-17 05:58N 51°57' E 004°02'0 0.0
2018-Apr-17 05:28N 51°57' E 004°02'0 0.0
2018-Apr-17 04:58N 51°57' E 004°02'0 0.0
2018-Apr-17 04:22N 51°57' E 004°02'0 0.0
2018-Apr-17 03:58N 51°57' E 004°02'0 0.0
2018-Apr-17 03:28N 51°57' E 004°02'0 0.0
2018-Apr-17 02:58N 51°57' E 004°02'0 0.0
2018-Apr-17 02:28N 51°57' E 004°02'0 0.0
2018-Apr-17 01:58N 51°57' E 004°02'0 0.0
2018-Apr-17 01:28N 51°57' E 004°02'0 0.0
2018-Apr-17 00:58N 51°57' E 004°02'0 0.0
2018-Apr-17 00:28N 51°57' E 004°02'0 0.0
2018-Apr-16 23:55N 51°57' E 004°02'0 0.0
2018-Apr-16 23:28N 51°57' E 004°02'0 0.0
2018-Apr-16 22:58N 51°57' E 004°02'  
Track history (hours):
 
Tides and Currents Weather Stations Pressure Air Temp Water Temp Dewpoint Dewpoint Depression Visibility Wind Speed Wind Dir Waves Ship Positions

Anne Sibum

Last reported at 2018-Apr-26 22:30 UTC. Time now 2018-Apr-26 22:48 UTC.
Position N 50°18' W 000°06'.

Length 152 m; draft 6.8 m.

Type: Ship (hazmat cat A). MMSI: 209322000.

Date/timePositionNaut miles runAvg speedWind from/ knotsBaromVisibWave heightAir tempDewpointWater temp
2018-Apr-26 22:30N 50°18' W 000°06'3 6.8
2018-Apr-26 22:00N 50°17' W 000°12'4 7.1
2018-Apr-26 21:30N 50°16' W 000°17'4 7.4
2018-Apr-26 21:00N 50°16' W 000°23'4 8.1
2018-Apr-26 20:30N 50°15' W 000°29'4 8.8
2018-Apr-26 20:00N 50°14' W 000°36'5 9.5
2018-Apr-26 19:30N 50°13' W 000°43'510.4
2018-Apr-26 18:59N 50°11' W 000°51'511.0
2018-Apr-26 18:30N 50°10' W 000°59'611.5
2018-Apr-26 17:57N 50°08' W 001°08'1411.7
2018-Apr-26 16:45N 50°04' W 001°29'  
2018-Apr-24 00:38N 39°22' W 009°51'213.7
2018-Apr-24 00:30N 39°21' W 009°51'713.7
2018-Apr-24 00:00N 39°14' W 009°51'713.6
2018-Apr-23 23:30N 39°07' W 009°51'713.6
2018-Apr-23 23:01N 39°00' W 009°51'713.7
2018-Apr-23 22:31N 38°53' W 009°51'713.5
2018-Apr-23 22:01N 38°47' W 009°51'713.4
2018-Apr-23 21:30N 38°40' W 009°49'713.3
2018-Apr-23 21:00N 38°36' W 009°43'714.9
2018-Apr-23 20:30N 38°36' W 009°33'714.8
2018-Apr-23 20:00N 38°37' W 009°24'714.7
2018-Apr-23 19:30N 38°41' W 009°16'510.7
2018-Apr-23 19:00N 38°42' W 009°09'3 5.6
2018-Apr-23 18:29N 38°44' W 009°06'0 0.0
2018-Apr-23 17:59N 38°44' W 009°06'0 0.0
2018-Apr-23 17:23N 38°44' W 009°06'0 0.0
2018-Apr-23 16:59N 38°44' W 009°06'0 0.0
2018-Apr-23 16:29N 38°44' W 009°06'0 0.0
2018-Apr-23 15:56N 38°44' W 009°06'0 0.0
2018-Apr-23 15:23N 38°44' W 009°06'0 0.0
2018-Apr-23 14:59N 38°44' W 009°06'0 0.0
2018-Apr-23 14:20N 38°44' W 009°06'0 0.0
2018-Apr-23 13:59N 38°44' W 009°06'0 0.0
2018-Apr-23 13:29N 38°44' W 009°06'0 0.0
2018-Apr-23 12:56N 38°44' W 009°06'0 0.0
2018-Apr-23 12:29N 38°44' W 009°06'0 0.0
2018-Apr-23 11:59N 38°44' W 009°06'0 0.0
2018-Apr-23 11:29N 38°44' W 009°06'0 0.0
2018-Apr-23 10:59N 38°44' W 009°06'0 0.0
2018-Apr-23 10:29N 38°44' W 009°06'0 0.0
2018-Apr-23 09:59N 38°44' W 009°06'0 0.0
2018-Apr-23 09:26N 38°44' W 009°06'0 0.0
2018-Apr-23 09:00N 38°44' W 009°06'0 0.0
2018-Apr-23 08:30N 38°44' W 009°06'0 0.0
2018-Apr-23 08:00N 38°44' W 009°06'0 0.0
2018-Apr-23 07:30N 38°44' W 009°06'0 0.0
2018-Apr-23 07:00N 38°44' W 009°06'1 2.4
2018-Apr-23 06:31N 38°42' W 009°07'510.2
2018-Apr-23 06:00N 38°41' W 009°13'510.7
2018-Apr-23 05:30N 38°39' W 009°20'611.7
2018-Apr-23 05:00N 38°36' W 009°26'5 9.9
2018-Apr-23 04:30N 38°36' W 009°33'715.0
2018-Apr-23 04:00N 38°35' W 009°42'714.1
2018-Apr-23 03:30N 38°35' W 009°51'713.8
2018-Apr-23 03:00N 38°35' W 009°60'612.4
2018-Apr-23 02:30N 38°40' W 010°06'1715.2
2018-Apr-23 01:21N 38°57' W 010°03'515.6
2018-Apr-23 01:00N 39°02' W 010°00'815.6
2018-Apr-23 00:30N 39°09' W 009°56'815.6
2018-Apr-23 00:00N 39°16' W 009°52'815.4
2018-Apr-22 23:30N 39°23' W 009°48'11015.6
2018-Apr-22 16:24N 41°03' W 008°47'615.3
2018-Apr-22 16:00N 41°09' W 008°43'3 4.3
2018-Apr-22 15:25N 41°11' W 008°42'0 0.0
2018-Apr-22 14:55N 41°11' W 008°42'0 0.0
2018-Apr-22 14:25N 41°11' W 008°42'0 0.0
2018-Apr-22 13:55N 41°11' W 008°42'0 0.0
2018-Apr-22 13:25N 41°11' W 008°42'0 0.0
2018-Apr-22 12:55N 41°11' W 008°42'0 0.0
2018-Apr-22 12:25N 41°11' W 008°42'0 0.0
2018-Apr-22 11:55N 41°11' W 008°42'0 0.0
2018-Apr-22 11:25N 41°11' W 008°42'0 0.0
2018-Apr-22 10:55N 41°11' W 008°42'0 0.0
2018-Apr-22 10:25N 41°11' W 008°42'0 0.0
2018-Apr-22 09:55N 41°11' W 008°42'0 0.0
2018-Apr-22 09:25N 41°11' W 008°42'0 0.0
2018-Apr-22 08:55N 41°11' W 008°42'0 0.0
2018-Apr-22 08:25N 41°11' W 008°42'0 0.0
2018-Apr-22 07:55N 41°11' W 008°42'0 0.0
2018-Apr-22 07:25N 41°11' W 008°42'0 0.0
2018-Apr-22 06:55N 41°11' W 008°42'0 0.0
2018-Apr-22 06:25N 41°11' W 008°42'0 0.0
2018-Apr-22 05:55N 41°11' W 008°42'0 0.0
2018-Apr-22 05:25N 41°11' W 008°42'0 0.0
2018-Apr-22 04:55N 41°11' W 008°42'0 0.0
2018-Apr-22 04:25N 41°11' W 008°42'0 0.0
2018-Apr-22 03:55N 41°11' W 008°42'0 0.0
2018-Apr-22 03:25N 41°11' W 008°42'0 0.0
2018-Apr-22 02:55N 41°11' W 008°42'0 0.0
2018-Apr-22 02:25N 41°11' W 008°42'0 0.0
2018-Apr-22 01:55N 41°11' W 008°42'0 0.0
2018-Apr-22 01:25N 41°11' W 008°42'0 0.0
2018-Apr-22 00:55N 41°11' W 008°42'0 0.0
2018-Apr-22 00:25N 41°11' W 008°42'0 0.0
2018-Apr-21 23:55N 41°11' W 008°42'0 0.0
2018-Apr-21 23:25N 41°11' W 008°42'0 0.0
2018-Apr-21 22:55N 41°11' W 008°42'0 0.0
2018-Apr-21 22:25N 41°11' W 008°42'0 0.0
2018-Apr-21 21:55N 41°11' W 008°42'0 0.0
2018-Apr-21 21:25N 41°11' W 008°42'0 0.0
2018-Apr-21 20:55N 41°11' W 008°42'0 0.0
2018-Apr-21 20:25N 41°11' W 008°42'0 0.0
2018-Apr-21 19:55N 41°11' W 008°42'0 0.0
2018-Apr-21 19:25N 41°11' W 008°42'0 0.0
2018-Apr-21 18:55N 41°11' W 008°42'0 0.0
2018-Apr-21 18:25N 41°11' W 008°42'0 0.0
2018-Apr-21 17:55N 41°11' W 008°42'0 0.0
2018-Apr-21 17:25N 41°11' W 008°42'0 0.0
2018-Apr-21 16:55N 41°11' W 008°42'0 0.0
2018-Apr-21 16:25N 41°11' W 008°42'0 0.0
2018-Apr-21 15:55N 41°11' W 008°42'0 0.0
2018-Apr-21 15:25N 41°11' W 008°42'0 0.0
2018-Apr-21 14:55N 41°11' W 008°42'0 0.0
2018-Apr-21 14:25N 41°11' W 008°42'0 0.0
2018-Apr-21 13:55N 41°11' W 008°42'0 0.0
2018-Apr-21 13:31N 41°11' W 008°42'1 2.4
2018-Apr-21 13:01N 41°10' W 008°43'1 2.5
2018-Apr-21 12:30N 41°10' W 008°44'2 3.9
2018-Apr-21 12:00N 41°10' W 008°47'0 0.1
2018-Apr-21 10:39N 41°10' W 008°47'0 0.0
2018-Apr-21 10:30N 41°10' W 008°47'0 0.0
2018-Apr-21 09:57N 41°10' W 008°47'0 0.0
2018-Apr-21 09:15N 41°10' W 008°47'0 0.0
2018-Apr-21 08:48N 41°10' W 008°47'0 0.0
2018-Apr-21 08:00N 41°10' W 008°47'0 0.0
2018-Apr-21 07:27N 41°10' W 008°47'0 0.0
2018-Apr-21 05:48N 41°10' W 008°47'0 0.0
2018-Apr-21 05:27N 41°10' W 008°47'0 0.0
2018-Apr-21 04:39N 41°10' W 008°47'0 0.0
2018-Apr-21 04:30N 41°10' W 008°47'0 0.0
2018-Apr-21 03:57N 41°10' W 008°47'0 0.1
2018-Apr-21 03:09N 41°10' W 008°47'0 0.2
2018-Apr-21 03:00N 41°10' W 008°47'3 6.2
2018-Apr-21 02:28N 41°09' W 008°50'510.1
2018-Apr-21 02:00N 41°13' W 008°53'40411.5
2018-Apr-19 14:58N 47°46' W 006°43'711.2
2018-Apr-19 14:19N 47°52' W 006°38'511.4
2018-Apr-19 13:52N 47°57' W 006°34'10112.1
2018-Apr-19 05:33N 49°13' W 004°56'512.3
2018-Apr-19 05:09N 49°16' W 004°49'212.4
2018-Apr-19 05:00N 49°16' W 004°47'612.6
2018-Apr-19 04:30N 49°20' W 004°38'713.1
2018-Apr-19 04:00N 49°24' W 004°30'713.8
2018-Apr-19 03:30N 49°27' W 004°21'1114.6
2018-Apr-19 02:45N 49°33' W 004°06'415.4
2018-Apr-19 02:28N 49°35' W 004°00'715.8
2018-Apr-19 02:00N 49°39' W 003°51'1016.0
2018-Apr-19 01:23N 49°44' W 003°38'616.0
2018-Apr-19 01:00N 49°48' W 003°30'816.0
2018-Apr-19 00:30N 49°52' W 003°20'815.5
2018-Apr-19 00:00N 49°56' W 003°10'714.8
2018-Apr-18 23:30N 49°59' W 002°60'1313.6
2018-Apr-18 22:35N 50°03' W 002°41'213.0
2018-Apr-18 22:24N 50°04' W 002°37'612.6
2018-Apr-18 21:55N 50°05' W 002°28'711.9
2018-Apr-18 21:19N 50°07' W 002°17'911.4
2018-Apr-18 20:30N 50°09' W 002°03'811.3
2018-Apr-18 19:45N 50°12' W 001°51'310.9
2018-Apr-18 19:30N 50°12' W 001°47'611.5
2018-Apr-18 19:00N 50°14' W 001°38'510.9
2018-Apr-18 18:30N 50°16' W 001°30'611.0
2018-Apr-18 18:00N 50°17' W 001°21'612.0
2018-Apr-18 17:29N 50°19' W 001°12'612.1
2018-Apr-18 17:01N 50°20' W 001°03'612.6
2018-Apr-18 16:30N 50°22' W 000°54'612.6
2018-Apr-18 16:01N 50°24' W 000°44'612.5
2018-Apr-18 15:30N 50°26' W 000°35'612.6
2018-Apr-18 15:00N 50°28' W 000°26'612.7
2018-Apr-18 14:31N 50°29' W 000°16'612.9
2018-Apr-18 14:00N 50°31' W 000°06'714.1
2018-Apr-18 13:30N 50°33' E 000°04'713.6
2018-Apr-18 13:00N 50°35' E 000°14'713.1
2018-Apr-18 12:30N 50°37' E 000°24'612.6
2018-Apr-18 12:00N 50°39' E 000°34'612.4
2018-Apr-18 11:30N 50°43' E 000°42'612.3
2018-Apr-18 11:00N 50°46' E 000°50'611.7
2018-Apr-18 10:30N 50°49' E 000°58'611.3
2018-Apr-18 10:00N 50°53' E 001°05'510.9
2018-Apr-18 09:30N 50°56' E 001°12'611.6
2018-Apr-18 08:59N 51°00' E 001°19'612.3
2018-Apr-18 08:30N 51°04' E 001°26'612.0
2018-Apr-18 08:00N 51°08' E 001°34'612.9
2018-Apr-18 07:31N 51°11' E 001°42'611.6
2018-Apr-18 07:00N 51°16' E 001°48'612.5
2018-Apr-18 06:31N 51°21' E 001°53'612.3
2018-Apr-18 06:01N 51°26' E 001°58'611.8
2018-Apr-18 05:31N 51°31' E 002°05'612.5
2018-Apr-18 05:00N 51°35' E 002°11'612.3
2018-Apr-18 04:31N 51°40' E 002°18'612.3
2018-Apr-18 04:00N 51°44' E 002°25'611.9
2018-Apr-18 03:30N 51°49' E 002°32'3711.2
2018-Apr-18 00:12N 52°03' E 003°27'311.9
2018-Apr-17 23:59N 52°03' E 003°31'611.8
2018-Apr-17 23:30N 52°03' E 003°41'612.3
2018-Apr-17 23:01N 52°02' E 003°50'612.8
2018-Apr-17 22:30N 52°00' E 004°00'2 4.5
2018-Apr-17 22:01N 51°58' E 004°02'2 3.6
2018-Apr-17 21:31N 51°57' E 003°59'0 0.0
2018-Apr-17 20:58N 51°57' E 003°59'0 0.0
2018-Apr-17 20:28N 51°57' E 003°59'0 0.0
2018-Apr-17 19:52N 51°57' E 003°59'0 0.0
2018-Apr-17 19:30N 51°57' E 003°59'0 0.1
2018-Apr-17 19:00N 51°57' E 003°60'0 0.1
2018-Apr-17 18:30N 51°57' E 003°59'0 0.1
2018-Apr-17 18:01N 51°57' E 003°60'0 0.0
2018-Apr-17 17:30N 51°57' E 003°60'0 0.1
2018-Apr-17 17:00N 51°57' E 003°59'0 0.0
2018-Apr-17 16:03N 51°57' E 003°60'0 0.0
2018-Apr-17 15:57N 51°57' E 003°60'0 0.0
2018-Apr-17 15:30N 51°57' E 003°60'0 0.0
2018-Apr-17 14:58N 51°57' E 003°60'0 0.0
2018-Apr-17 14:26N 51°57' E 003°60'0 0.0
2018-Apr-17 13:55N 51°57' E 003°60'0 0.0
2018-Apr-17 13:28N 51°57' E 003°60'0 0.0
2018-Apr-17 13:00N 51°57' E 003°60'1 1.2
2018-Apr-17 12:30N 51°58' E 003°60'3 6.7
2018-Apr-17 12:00N 51°58' E 004°05'3 7.0
2018-Apr-17 11:30N 51°57' E 004°10'0 0.4
2018-Apr-17 10:57N 51°56' E 004°11'0 0.0
2018-Apr-17 10:30N 51°56' E 004°11'0 0.0
2018-Apr-17 10:00N 51°56' E 004°11'0 0.0
2018-Apr-17 09:30N 51°56' E 004°11'0 0.0
2018-Apr-17 09:00N 51°56' E 004°11'1 1.3
2018-Apr-17 08:30N 51°57' E 004°10'4 7.1
2018-Apr-17 08:00N 51°57' E 004°04'1 2.0
2018-Apr-17 07:28N 51°57' E 004°02'0 0.0
2018-Apr-17 06:58N 51°57' E 004°02'0 0.0
2018-Apr-17 06:28N 51°57' E 004°02'0 0.0
2018-Apr-17 05:58N 51°57' E 004°02'0 0.0
2018-Apr-17 05:28N 51°57' E 004°02'0 0.0
2018-Apr-17 04:58N 51°57' E 004°02'0 0.0
2018-Apr-17 04:22N 51°57' E 004°02'0 0.0
2018-Apr-17 03:58N 51°57' E 004°02'0 0.0
2018-Apr-17 03:28N 51°57' E 004°02'0 0.0
2018-Apr-17 02:58N 51°57' E 004°02'0 0.0
2018-Apr-17 02:28N 51°57' E 004°02'0 0.0
2018-Apr-17 01:58N 51°57' E 004°02'0 0.0
2018-Apr-17 01:28N 51°57' E 004°02'0 0.0
2018-Apr-17 00:58N 51°57' E 004°02'0 0.0
2018-Apr-17 00:28N 51°57' E 004°02'0 0.0
2018-Apr-16 23:55N 51°57' E 004°02'0 0.0
2018-Apr-16 23:28N 51°57' E 004°02'0 0.0
2018-Apr-16 22:58N 51°57' E 004°02'  

Dump ship's entire track history